Time;durP1;ratioP1;P1;durP2;ratioP2;P2;SDS_P1;SDS_P2;PMS_P1;PMS_P2;Temp;Humidity;BMP_temperature;BMP_pressure;BME280_temperature;BME280_humidity;BME280_pressure;Samples;Min_cycle;Max_cycle;Signal;HPM_P1;HPM_P2
2022/03/12 00:00:49;;;;;;;10.43;5.35;;;7.20;53.10;;;;;;4995206;28;20115;-73
2022/03/12 00:03:15;;;;;;;13.50;6.88;;;7.20;53.30;;;;;;4996635;28;20056;-72
2022/03/12 00:06:15;;;;;;;10.85;5.28;;;7.20;53.30;;;;;;4995892;28;20045;-72
2022/03/12 00:08:41;;;;;;;10.52;5.28;;;7.20;53.40;;;;;;5010114;28;20049;-72
2022/03/12 00:11:17;;;;;;;10.25;5.43;;;7.30;52.90;;;;;;5011860;28;20084;-72
2022/03/12 00:13:44;;;;;;;12.55;5.55;;;7.30;53.00;;;;;;4995781;28;20050;-73
2022/03/12 00:16:13;;;;;;;12.32;5.95;;;7.30;52.90;;;;;;4995903;28;20404;-73
2022/03/12 00:18:44;;;;;;;11.20;5.38;;;7.30;53.00;;;;;;4997521;28;20073;-72
2022/03/12 00:21:11;;;;;;;10.52;5.68;;;7.20;53.10;;;;;;4976784;28;20038;-73
2022/03/12 00:23:37;;;;;;;9.10;4.93;;;7.20;53.00;;;;;;4989422;28;20034;-73
2022/03/12 00:26:03;;;;;;;11.57;6.40;;;7.30;53.20;;;;;;5011117;28;20034;-73
2022/03/12 00:28:29;;;;;;;11.15;5.28;;;7.20;53.20;;;;;;4995851;28;20041;-73
2022/03/12 00:30:55;;;;;;;11.30;5.55;;;7.20;53.40;;;;;;4996151;28;20044;-72
2022/03/12 00:33:21;;;;;;;13.25;5.80;;;7.30;52.80;;;;;;5011766;28;20410;-73
2022/03/12 00:35:49;;;;;;;9.90;5.63;;;7.20;53.20;;;;;;5009900;28;20441;-72
2022/03/12 00:38:16;;;;;;;10.40;5.22;;;7.30;52.20;;;;;;4995252;28;20081;-72
2022/03/12 00:40:43;;;;;;;13.45;6.30;;;7.30;52.40;;;;;;4995000;28;20124;-72
2022/03/12 00:43:09;;;;;;;12.65;6.40;;;7.20;53.00;;;;;;4996094;28;20045;-72
2022/03/12 00:45:36;;;;;;;10.25;5.53;;;7.20;53.20;;;;;;5002223;28;20042;-73
2022/03/12 00:48:01;;;;;;;9.55;4.78;;;7.30;52.50;;;;;;5007552;28;20038;-72
2022/03/12 00:50:27;;;;;;;10.75;5.75;;;7.30;52.40;;;;;;5011471;28;20080;-73
2022/03/12 00:52:53;;;;;;;9.77;5.35;;;7.30;52.30;;;;;;4995911;28;20045;-72
2022/03/12 00:55:18;;;;;;;11.05;6.18;;;7.30;52.30;;;;;;4992502;28;20038;-72
2022/03/12 00:57:44;;;;;;;10.15;5.50;;;7.20;53.00;;;;;;5010838;28;20042;-72
2022/03/12 01:00:21;;;;;;;10.70;6.07;;;7.20;53.60;;;;;;5011176;28;20041;-72
2022/03/12 01:02:47;;;;;;;14.63;6.38;;;7.10;53.90;;;;;;5028419;28;20046;-72
2022/03/12 01:05:16;;;;;;;11.77;5.90;;;7.10;54.10;;;;;;5006197;28;20066;-73
2022/03/12 01:07:42;;;;;;;11.32;6.07;;;7.10;54.40;;;;;;5028589;28;20046;-72
2022/03/12 01:10:08;;;;;;;11.43;5.63;;;7.10;54.20;;;;;;4994898;28;20116;-73
2022/03/12 01:12:33;;;;;;;11.18;6.07;;;7.10;54.40;;;;;;5015173;28;20145;-72
2022/03/12 01:14:59;;;;;;;11.13;5.93;;;7.00;55.30;;;;;;5015563;28;20038;-73
2022/03/12 01:17:25;;;;;;;10.70;5.57;;;7.00;55.20;;;;;;5016145;28;20045;-72
2022/03/12 01:19:50;;;;;;;11.27;5.75;;;7.00;55.00;;;;;;5014981;28;20049;-72
2022/03/12 01:22:19;;;;;;;12.50;6.88;;;7.00;55.00;;;;;;4999496;28;20053;-72
2022/03/12 01:24:48;;;;;;;11.25;6.32;;;6.80;56.20;;;;;;4998849;28;20437;-73
2022/03/12 01:27:15;;;;;;;10.30;5.75;;;6.80;56.30;;;;;;4999762;28;20441;-72
2022/03/12 01:29:41;;;;;;;13.20;6.60;;;6.70;56.50;;;;;;5014764;28;20037;-73
2022/03/12 01:32:08;;;;;;;9.73;5.53;;;6.80;56.30;;;;;;5009837;28;20093;-73
2022/03/12 01:34:34;;;;;;;11.13;6.28;;;6.80;56.40;;;;;;4997533;28;20093;-72
2022/03/12 01:36:59;;;;;;;10.38;6.35;;;6.80;56.40;;;;;;4999595;28;20041;-73
2022/03/12 01:39:26;;;;;;;10.40;5.53;;;6.70;56.80;;;;;;5013596;28;20057;-73
2022/03/12 01:41:53;;;;;;;11.65;6.38;;;6.80;56.60;;;;;;5004429;28;20045;-73
2022/03/12 01:44:19;;;;;;;11.00;5.95;;;6.80;56.30;;;;;;5031985;28;20037;-73
2022/03/12 01:46:47;;;;;;;10.93;6.32;;;6.70;56.40;;;;;;5031327;28;20172;-72
2022/03/12 01:49:19;;;;;;;13.38;6.25;;;6.70;56.40;;;;;;4999174;28;20092;-73
2022/03/12 01:51:46;;;;;;;10.75;6.28;;;6.70;56.60;;;;;;5014572;28;20041;-72
2022/03/12 01:54:16;;;;;;;11.63;6.10;;;6.70;56.20;;;;;;4999280;28;20045;-72
2022/03/12 01:56:41;;;;;;;9.93;5.30;;;6.70;56.50;;;;;;5014353;28;20157;-72
2022/03/12 01:59:07;;;;;;;10.90;6.00;;;6.70;56.30;;;;;;5015229;28;20078;-72
2022/03/12 02:01:33;;;;;;;8.82;5.18;;;6.70;56.10;;;;;;5011499;28;20074;-73
2022/03/12 02:04:00;;;;;;;10.68;6.18;;;6.70;56.60;;;;;;5015055;28;20406;-72
2022/03/12 02:06:27;;;;;;;10.70;5.72;;;6.70;56.20;;;;;;5012442;28;20053;-73
2022/03/12 02:08:58;;;;;;;10.85;6.50;;;6.70;56.30;;;;;;5030391;28;20084;-73
2022/03/12 02:11:28;;;;;;;12.60;6.53;;;6.70;56.20;;;;;;5012722;28;20499;-72
2022/03/12 02:14:01;;;;;;;10.13;6.10;;;6.70;56.20;;;;;;4998672;28;20041;-72
2022/03/12 02:16:29;;;;;;;11.02;6.18;;;6.70;56.40;;;;;;5012966;28;20402;-73
2022/03/12 02:18:55;;;;;;;11.93;6.00;;;6.70;56.70;;;;;;5015019;28;20050;-73
2022/03/12 02:21:34;;;;;;;11.10;5.15;;;6.70;56.50;;;;;;4996691;28;20042;-72
2022/03/12 02:24:07;;;;;;;10.50;5.90;;;6.80;56.00;;;;;;4997076;28;20042;-72
2022/03/12 02:26:33;;;;;;;10.85;6.40;;;6.70;56.40;;;;;;5005397;28;20510;-73
2022/03/12 02:28:59;;;;;;;11.85;5.57;;;6.70;56.70;;;;;;5013202;28;20109;-73
2022/03/12 02:31:27;;;;;;;11.20;6.25;;;6.70;56.80;;;;;;5031487;28;20477;-72
2022/03/12 02:34:01;;;;;;;11.10;6.57;;;6.60;56.90;;;;;;5011231;28;20121;-73
2022/03/12 02:36:31;;;;;;;11.60;6.25;;;6.60;57.30;;;;;;5010659;28;20037;-72
2022/03/12 02:38:57;;;;;;;11.07;6.25;;;6.60;57.50;;;;;;5028784;28;20050;-73
2022/03/12 02:41:24;;;;;;;10.93;6.38;;;6.50;57.50;;;;;;5013569;28;20049;-72
2022/03/12 02:43:50;;;;;;;10.57;6.25;;;6.60;57.50;;;;;;4997991;28;20136;-73
2022/03/12 02:46:16;;;;;;;11.25;6.40;;;6.60;57.40;;;;;;5012796;28;20044;-72
2022/03/12 02:48:52;;;;;;;11.50;6.25;;;6.60;57.10;;;;;;4993819;28;20495;-72
2022/03/12 02:51:21;;;;;;;11.45;6.60;;;6.70;57.00;;;;;;4991089;28;20045;-72
2022/03/12 02:53:49;;;;;;;11.45;6.25;;;6.70;56.40;;;;;;4994224;28;20042;-72
2022/03/12 02:56:15;;;;;;;10.88;6.57;;;6.70;56.90;;;;;;4993758;28;20498;-72
2022/03/12 02:58:41;;;;;;;12.57;6.57;;;6.60;57.20;;;;;;5028149;28;20095;-72
2022/03/12 03:01:06;;;;;;;12.23;6.68;;;6.60;57.40;;;;;;5005428;28;20173;-72
2022/03/12 03:03:37;;;;;;;10.55;5.65;;;6.50;58.10;;;;;;4994396;28;20039;-72
2022/03/12 03:06:02;;;;;;;12.90;6.90;;;6.60;57.80;;;;;;5003466;28;20179;-72
2022/03/12 03:08:28;;;;;;;12.13;5.95;;;6.60;57.40;;;;;;5013016;28;20547;-73
2022/03/12 03:10:58;;;;;;;11.02;6.30;;;6.70;57.20;;;;;;5012924;28;20038;-72
2022/03/12 03:13:36;;;;;;;11.27;6.53;;;6.50;57.60;;;;;;4996713;28;20120;-72
2022/03/12 03:16:09;;;;;;;13.82;6.53;;;6.50;58.00;;;;;;5029124;28;20042;-72
2022/03/12 03:18:39;;;;;;;10.68;5.53;;;6.50;58.20;;;;;;4993358;28;20050;-72
2022/03/12 03:21:09;;;;;;;14.13;6.85;;;6.40;58.50;;;;;;5001364;28;20052;-72
2022/03/12 03:23:35;;;;;;;11.27;6.47;;;6.50;58.40;;;;;;4997428;28;20034;-72
2022/03/12 03:26:02;;;;;;;12.05;6.55;;;6.50;58.10;;;;;;5011604;28;20177;-72
2022/03/12 03:28:28;;;;;;;13.77;6.38;;;6.40;58.00;;;;;;5013564;28;20041;-72
2022/03/12 03:30:53;;;;;;;15.32;7.05;;;6.40;58.70;;;;;;4996624;28;20037;-72
2022/03/12 03:33:21;;;;;;;11.15;6.95;;;6.30;59.30;;;;;;5012225;28;20391;-72
2022/03/12 03:35:47;;;;;;;11.00;6.22;;;6.40;58.60;;;;;;5012311;28;20406;-72
2022/03/12 03:38:14;;;;;;;10.98;6.20;;;6.40;58.60;;;;;;5012649;28;20058;-72
2022/03/12 03:40:41;;;;;;;11.90;6.50;;;6.40;58.80;;;;;;5012539;28;20046;-72
2022/03/12 03:43:09;;;;;;;10.95;6.32;;;6.40;58.70;;;;;;4996929;28;20048;-72
2022/03/12 03:45:36;;;;;;;12.50;6.45;;;6.30;59.00;;;;;;4996045;28;20046;-72
2022/03/12 03:48:02;;;;;;;11.32;6.15;;;6.40;58.90;;;;;;5013235;28;20030;-72
2022/03/12 03:50:27;;;;;;;11.40;6.57;;;6.40;58.70;;;;;;5013277;28;20474;-72
2022/03/12 03:52:57;;;;;;;12.48;6.35;;;6.40;58.50;;;;;;5012417;28;20053;-72
2022/03/12 03:55:26;;;;;;;11.98;6.55;;;6.30;58.80;;;;;;5010891;28;20084;-73
2022/03/12 03:57:57;;;;;;;12.27;6.28;;;6.40;58.70;;;;;;4995974;28;20506;-73
2022/03/12 04:00:23;;;;;;;9.27;5.60;;;6.30;59.10;;;;;;5012744;28;20038;-73
2022/03/12 04:02:55;;;;;;;11.20;6.25;;;6.50;58.50;;;;;;4992370;28;20419;-73
2022/03/12 04:05:22;;;;;;;10.25;6.00;;;6.50;58.40;;;;;;4993383;28;20034;-73
2022/03/12 04:07:47;;;;;;;11.68;6.20;;;6.40;58.40;;;;;;5008414;28;20045;-73
2022/03/12 04:10:13;;;;;;;11.20;6.10;;;6.40;58.20;;;;;;5012892;28;20038;-73
2022/03/12 04:12:39;;;;;;;10.40;5.90;;;6.40;58.10;;;;;;5008578;28;20034;-73
2022/03/12 04:15:05;;;;;;;9.90;5.60;;;6.40;57.70;;;;;;4992816;28;20042;-73
2022/03/12 04:17:32;;;;;;;11.07;6.10;;;6.50;57.90;;;;;;5006416;28;20096;-73
2022/03/12 04:19:57;;;;;;;10.57;6.00;;;6.30;57.90;;;;;;5012109;28;20445;-73
2022/03/12 04:22:24;;;;;;;11.57;6.05;;;6.40;57.60;;;;;;5011642;28;20054;-73
2022/03/12 04:24:50;;;;;;;10.65;5.43;;;6.40;57.60;;;;;;5008637;28;20041;-73
2022/03/12 04:27:15;;;;;;;11.75;6.50;;;6.40;57.50;;;;;;4991992;28;20064;-74
2022/03/12 04:29:41;;;;;;;10.15;6.10;;;6.30;57.70;;;;;;4996246;28;20518;-73
2022/03/12 04:32:10;;;;;;;14.95;7.18;;;6.30;57.90;;;;;;5011552;28;20038;-73
2022/03/12 04:34:36;;;;;;;10.65;5.90;;;6.20;58.40;;;;;;5028033;28;20124;-74
2022/03/12 04:37:03;;;;;;;9.55;6.18;;;6.20;58.60;;;;;;5012500;28;20072;-73
2022/03/12 04:39:29;;;;;;;10.60;5.95;;;6.20;59.10;;;;;;5006723;28;20058;-73
2022/03/12 04:41:55;;;;;;;10.88;6.32;;;6.10;58.80;;;;;;4976483;28;20042;-73
2022/03/12 04:44:22;;;;;;;10.88;5.82;;;6.20;58.70;;;;;;4996317;28;20034;-73
2022/03/12 04:46:48;;;;;;;10.23;6.10;;;6.20;58.50;;;;;;4995308;28;20080;-74
2022/03/12 04:49:13;;;;;;;10.23;6.07;;;6.30;58.50;;;;;;5011194;28;20069;-73
2022/03/12 04:51:41;;;;;;;11.10;5.72;;;6.30;58.20;;;;;;5011734;28;20084;-73
2022/03/12 04:54:07;;;;;;;12.13;5.78;;;6.30;58.30;;;;;;5010654;28;20052;-73
2022/03/12 04:56:32;;;;;;;10.80;5.85;;;6.20;58.40;;;;;;5008946;28;20042;-73
2022/03/12 04:58:58;;;;;;;9.15;5.35;;;6.20;58.50;;;;;;4992164;28;20046;-73
2022/03/12 05:01:24;;;;;;;10.85;5.53;;;6.20;58.40;;;;;;5012321;28;20046;-73
2022/03/12 05:03:50;;;;;;;12.52;6.28;;;6.20;58.20;;;;;;5012072;28;20038;-73
2022/03/12 05:06:17;;;;;;;9.13;5.60;;;6.20;58.40;;;;;;5011167;28;20057;-73
2022/03/12 05:08:42;;;;;;;10.27;5.78;;;6.10;58.60;;;;;;5028601;28;20042;-73
2022/03/12 05:11:08;;;;;;;10.70;6.13;;;6.10;58.40;;;;;;5027647;28;20403;-73
2022/03/12 05:13:34;;;;;;;10.18;5.55;;;6.10;58.30;;;;;;4995735;28;20188;-73
2022/03/12 05:16:03;;;;;;;10.52;5.30;;;6.20;58.40;;;;;;4991929;28;20046;-73
2022/03/12 05:18:30;;;;;;;11.50;6.05;;;6.40;56.90;;;;;;4992549;28;20120;-73
2022/03/12 05:20:56;;;;;;;10.35;5.88;;;6.20;57.40;;;;;;5007098;28;20038;-73
2022/03/12 05:23:22;;;;;;;10.38;6.20;;;6.10;58.60;;;;;;5010890;28;20049;-73
2022/03/12 05:25:50;;;;;;;12.25;5.97;;;6.10;58.40;;;;;;4999238;28;20112;-74
2022/03/12 05:28:23;;;;;;;10.80;5.82;;;6.10;58.20;;;;;;4992638;28;20074;-73
2022/03/12 05:30:49;;;;;;;17.23;6.80;;;6.00;58.90;;;;;;4986810;28;20034;-73
2022/03/12 05:33:17;;;;;;;9.32;5.50;;;6.00;59.00;;;;;;4992608;28;20510;-73
2022/03/12 05:35:49;;;;;;;9.48;5.72;;;6.00;59.00;;;;;;5011325;28;20414;-73
2022/03/12 05:38:16;;;;;;;12.10;6.20;;;6.00;58.70;;;;;;4995400;28;20069;-73
2022/03/12 05:40:41;;;;;;;9.93;5.93;;;6.10;58.60;;;;;;4994685;28;20041;-73
2022/03/12 05:43:14;;;;;;;10.23;6.10;;;6.10;58.40;;;;;;5011740;28;20101;-73
2022/03/12 05:45:45;;;;;;;10.52;5.75;;;6.00;58.80;;;;;;4994726;28;20038;-73
2022/03/12 05:48:11;;;;;;;10.18;6.47;;;5.90;60.00;;;;;;5028234;28;20106;-73
2022/03/12 05:50:38;;;;;;;10.02;5.55;;;5.80;59.60;;;;;;5009876;28;20045;-73
2022/03/12 05:53:09;;;;;;;12.20;5.72;;;5.70;60.00;;;;;;5011108;28;20049;-73
2022/03/12 05:55:39;;;;;;;9.98;5.57;;;5.70;60.30;;;;;;5010017;28;20061;-73
2022/03/12 05:58:06;;;;;;;10.48;5.90;;;5.70;60.60;;;;;;5013793;28;20099;-73
2022/03/12 06:00:32;;;;;;;10.30;6.30;;;5.80;60.10;;;;;;5014535;28;20041;-73
2022/03/12 06:03:00;;;;;;;11.75;6.10;;;5.90;59.50;;;;;;4997551;28;20037;-73
2022/03/12 06:05:26;;;;;;;12.85;6.28;;;5.80;60.40;;;;;;5015436;28;20077;-74
2022/03/12 06:07:53;;;;;;;11.55;6.03;;;5.70;60.50;;;;;;4994866;28;20049;-73
2022/03/12 06:10:21;;;;;;;10.27;5.75;;;5.60;60.90;;;;;;5004207;28;20509;-73
2022/03/12 06:12:48;;;;;;;10.25;5.60;;;5.70;61.70;;;;;;5015201;28;20168;-73
2022/03/12 06:15:16;;;;;;;11.90;5.97;;;5.70;60.80;;;;;;4998127;28;20092;-74
2022/03/12 06:17:45;;;;;;;11.25;5.63;;;5.80;61.00;;;;;;5015345;28;20391;-73
2022/03/12 06:20:12;;;;;;;11.55;5.75;;;5.80;61.00;;;;;;5030551;28;20046;-73
2022/03/12 06:22:39;;;;;;;11.40;5.38;;;5.90;60.80;;;;;;5014844;28;20495;-73
2022/03/12 06:25:07;;;;;;;10.18;5.65;;;5.90;60.40;;;;;;5012229;28;20042;-73
2022/03/12 06:27:33;;;;;;;11.77;6.10;;;5.80;60.30;;;;;;5014810;28;20038;-73
2022/03/12 06:29:59;;;;;;;11.52;6.28;;;5.80;60.50;;;;;;5012944;28;20025;-74
2022/03/12 06:32:24;;;;;;;10.25;5.65;;;5.80;61.20;;;;;;4996575;28;20409;-73
2022/03/12 06:34:50;;;;;;;11.43;5.88;;;5.80;61.20;;;;;;5012447;28;20518;-73
2022/03/12 06:37:16;;;;;;;10.77;5.43;;;5.80;61.40;;;;;;5000417;28;20042;-73
2022/03/12 06:39:41;;;;;;;9.73;5.60;;;5.90;60.60;;;;;;4992562;28;20454;-73
2022/03/12 06:42:07;;;;;;;10.75;6.07;;;5.90;60.30;;;;;;4989446;28;20042;-73
2022/03/12 06:44:36;;;;;;;10.38;5.60;;;5.90;60.20;;;;;;5020344;28;20040;-73
2022/03/12 06:47:07;;;;;;;10.95;5.72;;;6.00;59.70;;;;;;4997320;28;20045;-73
2022/03/12 06:49:33;;;;;;;8.83;5.13;;;6.00;59.50;;;;;;5008472;28;20038;-73
2022/03/12 06:51:58;;;;;;;12.57;6.05;;;6.00;59.80;;;;;;4989858;28;20056;-73
2022/03/12 06:54:25;;;;;;;10.23;5.35;;;6.00;59.50;;;;;;5011073;28;20392;-73
2022/03/12 06:56:51;;;;;;;10.05;5.22;;;6.00;59.70;;;;;;5013858;28;20406;-73
2022/03/12 06:59:17;;;;;;;13.15;6.03;;;6.10;59.10;;;;;;5010450;28;20042;-73
2022/03/12 07:01:42;;;;;;;10.45;5.40;;;6.10;59.40;;;;;;5013445;28;20069;-84
2022/03/12 07:04:10;;;;;;;10.73;5.35;;;6.00;62.30;;;;;;4996830;28;20037;-83
2022/03/12 07:06:35;;;;;;;10.15;5.57;;;6.10;65.60;;;;;;4990094;28;20075;-73
2022/03/12 07:09:01;;;;;;;10.45;5.50;;;6.10;60.60;;;;;;4991987;28;20077;-73
2022/03/12 07:11:28;;;;;;;9.70;5.72;;;6.30;58.90;;;;;;5003167;28;20045;-73
2022/03/12 07:13:53;;;;;;;10.65;5.60;;;6.20;59.60;;;;;;4986591;28;20543;-73
2022/03/12 07:16:19;;;;;;;11.45;5.93;;;6.20;60.00;;;;;;4988138;28;20045;-73
2022/03/12 07:18:45;;;;;;;10.95;6.05;;;6.20;60.30;;;;;;4990250;28;20097;-73
2022/03/12 07:21:11;;;;;;;13.55;6.82;;;6.10;60.50;;;;;;4979814;28;20038;-73
2022/03/12 07:23:36;;;;;;;10.63;5.53;;;6.10;60.70;;;;;;4975263;28;20045;-73
2022/03/12 07:26:02;;;;;;;11.43;6.10;;;6.20;60.60;;;;;;4991923;28;20044;-73
2022/03/12 07:28:28;;;;;;;10.48;6.13;;;6.20;60.50;;;;;;4985056;28;20038;-73
2022/03/12 07:30:54;;;;;;;11.20;5.45;;;6.30;60.50;;;;;;4984641;28;20053;-73
2022/03/12 07:33:20;;;;;;;11.13;6.70;;;6.20;61.00;;;;;;4984814;28;20426;-74
2022/03/12 07:35:46;;;;;;;10.30;6.15;;;6.20;61.40;;;;;;5007127;28;20746;-73
2022/03/12 07:38:12;;;;;;;11.68;6.13;;;6.10;63.00;;;;;;4991512;28;20062;-73
2022/03/12 07:40:40;;;;;;;11.90;6.35;;;6.10;62.30;;;;;;4992046;28;20038;-73
2022/03/12 07:43:06;;;;;;;10.13;6.20;;;6.00;62.90;;;;;;5015016;28;20530;-73
2022/03/12 07:45:31;;;;;;;10.57;5.90;;;6.20;62.90;;;;;;4976679;28;20084;-73
2022/03/12 07:47:58;;;;;;;10.90;6.57;;;6.30;63.10;;;;;;4987958;28;20577;-78
2022/03/12 07:50:26;;;;;;;10.48;5.90;;;6.20;68.90;;;;;;4995122;28;20045;-77
2022/03/12 07:52:52;;;;;;;10.93;6.10;;;6.40;68.00;;;;;;4990054;28;20096;-75
2022/03/12 07:55:18;;;;;;;11.10;6.25;;;6.60;65.00;;;;;;5005438;28;20038;-75
2022/03/12 07:57:45;;;;;;;12.98;5.75;;;6.70;64.60;;;;;;5011098;28;20289;-75
2022/03/12 08:00:13;;;;;;;12.68;6.38;;;6.90;64.70;;;;;;4976316;28;20064;-75
2022/03/12 08:02:39;;;;;;;10.15;6.07;;;7.00;64.90;;;;;;5001286;28;20054;-75
2022/03/12 08:05:05;;;;;;;10.82;6.53;;;7.20;63.90;;;;;;4986419;28;20052;-75
2022/03/12 08:07:32;;;;;;;11.20;6.47;;;7.30;63.60;;;;;;4990293;28;20045;-74
2022/03/12 08:09:59;;;;;;;12.25;6.78;;;7.40;62.60;;;;;;4978286;28;20289;-75
2022/03/12 08:12:31;;;;;;;12.23;5.93;;;7.60;61.00;;;;;;5000735;28;20050;-74
2022/03/12 08:14:57;;;;;;;11.98;6.05;;;7.80;60.50;;;;;;4984354;28;20441;-75
2022/03/12 08:17:24;;;;;;;8.50;4.65;;;8.00;59.30;;;;;;4984813;28;20046;-75
2022/03/12 08:19:50;;;;;;;11.82;5.20;;;8.10;59.50;;;;;;4999438;28;20053;-75
2022/03/12 08:22:17;;;;;;;9.48;5.38;;;8.20;58.80;;;;;;4993332;28;20042;-74
2022/03/12 08:24:43;;;;;;;14.02;7.00;;;8.20;58.60;;;;;;4987423;28;20052;-75
2022/03/12 08:27:09;;;;;;;8.95;5.05;;;8.30;59.00;;;;;;4988164;28;20033;-74
2022/03/12 08:29:35;;;;;;;13.52;7.45;;;8.30;59.30;;;;;;4988075;28;20044;-75
2022/03/12 08:32:00;;;;;;;11.73;6.78;;;8.40;58.80;;;;;;4994937;28;20046;-75
2022/03/12 08:34:26;;;;;;;11.73;6.18;;;8.30;59.30;;;;;;4988955;28;20511;-75
2022/03/12 08:36:52;;;;;;;11.07;6.03;;;8.40;59.30;;;;;;4992709;28;20062;-75
2022/03/12 08:39:18;;;;;;;11.65;6.38;;;8.50;58.90;;;;;;4989004;28;20108;-75
2022/03/12 08:41:44;;;;;;;8.27;4.45;;;8.70;58.70;;;;;;4975046;28;20100;-75
2022/03/12 08:44:11;;;;;;;10.13;4.82;;;8.80;58.60;;;;;;4990100;28;20152;-75
2022/03/12 08:46:38;;;;;;;17.27;7.32;;;8.90;58.80;;;;;;5017219;28;20033;-74
2022/03/12 08:49:04;;;;;;;12.48;6.28;;;8.90;59.40;;;;;;5000424;28;20045;-75
2022/03/12 08:51:30;;;;;;;12.98;6.60;;;9.20;58.30;;;;;;4999468;28;20034;-75
2022/03/12 08:53:56;;;;;;;12.32;6.18;;;9.20;58.30;;;;;;4990107;28;20056;-75
2022/03/12 08:56:22;;;;;;;10.65;5.95;;;9.20;58.90;;;;;;4993063;28;20708;-75
2022/03/12 08:58:47;;;;;;;11.73;6.38;;;9.30;59.20;;;;;;5000098;28;20549;-75
2022/03/12 09:01:14;;;;;;;11.18;6.10;;;9.30;59.00;;;;;;5000961;28;20037;-75
2022/03/12 09:03:40;;;;;;;12.95;7.18;;;9.40;58.70;;;;;;4989275;28;20064;-75
2022/03/12 09:06:07;;;;;;;9.20;5.07;;;9.50;58.60;;;;;;4991154;28;20034;-75
2022/03/12 09:08:33;;;;;;;11.50;5.70;;;9.50;59.30;;;;;;4989980;28;20045;-75
2022/03/12 09:10:59;;;;;;;11.35;6.38;;;9.60;58.20;;;;;;4974781;28;20035;-75
2022/03/12 09:13:25;;;;;;;12.77;7.55;;;9.60;60.00;;;;;;4991028;28;20088;-75
2022/03/12 09:15:54;;;;;;;13.45;7.82;;;9.60;59.00;;;;;;4993106;28;20459;-75
2022/03/12 09:18:20;;;;;;;9.43;4.80;;;9.70;59.30;;;;;;4989952;28;20042;-75
2022/03/12 09:20:47;;;;;;;10.88;6.78;;;9.90;58.50;;;;;;4996688;28;20056;-75
2022/03/12 09:23:19;;;;;;;12.45;7.03;;;9.90;59.80;;;;;;5004279;28;20038;-75
2022/03/12 09:25:47;;;;;;;9.68;5.95;;;10.00;59.50;;;;;;4991098;28;20040;-75
2022/03/12 09:28:13;;;;;;;13.80;7.53;;;10.10;60.00;;;;;;4988786;28;20038;-75
2022/03/12 09:30:39;;;;;;;10.95;6.32;;;10.10;59.50;;;;;;4991498;28;20038;-75
2022/03/12 09:33:06;;;;;;;6.97;3.90;;;10.30;58.90;;;;;;4975109;28;20137;-75
2022/03/12 09:35:32;;;;;;;10.13;6.55;;;10.30;60.40;;;;;;4993327;28;20069;-75
2022/03/12 09:38:01;;;;;;;13.80;7.18;;;10.40;59.90;;;;;;4981020;28;20084;-75
2022/03/12 09:40:28;;;;;;;11.68;6.97;;;10.40;60.90;;;;;;4981657;28;20490;-75
2022/03/12 09:42:53;;;;;;;11.50;7.32;;;10.50;62.80;;;;;;4991077;28;20054;-76
2022/03/12 09:45:21;;;;;;;13.85;7.03;;;10.80;61.60;;;;;;5008167;28;20099;-75
2022/03/12 09:47:47;;;;;;;12.45;7.28;;;10.70;62.70;;;;;;4992356;28;20464;-76
2022/03/12 09:50:14;;;;;;;13.38;7.88;;;10.80;63.50;;;;;;4992142;28;20042;-75
2022/03/12 09:52:40;;;;;;;11.73;8.02;;;10.90;63.90;;;;;;4991169;28;20045;-76
2022/03/12 09:55:06;;;;;;;13.63;7.70;;;11.00;64.00;;;;;;4991609;28;20335;-76
2022/03/12 09:57:34;;;;;;;13.40;7.13;;;11.20;64.20;;;;;;5011693;28;20514;-76
2022/03/12 09:59:59;;;;;;;11.43;7.13;;;11.30;65.40;;;;;;4994024;28;20053;-76
2022/03/12 10:02:25;;;;;;;10.63;6.80;;;11.40;66.00;;;;;;4977868;28;20506;-75
2022/03/12 10:04:50;;;;;;;12.68;7.68;;;11.40;66.10;;;;;;4993714;28;20422;-75
2022/03/12 10:07:16;;;;;;;12.40;6.78;;;11.50;66.20;;;;;;5005015;28;20488;-76
2022/03/12 10:09:42;;;;;;;12.50;7.70;;;11.50;67.30;;;;;;4976180;28;20052;-76
2022/03/12 10:12:08;;;;;;;14.85;8.18;;;11.60;68.50;;;;;;4996885;28;20060;-75
2022/03/12 10:14:34;;;;;;;12.45;7.28;;;11.70;68.30;;;;;;4991821;28;20486;-76
2022/03/12 10:17:02;;;;;;;12.93;8.20;;;11.70;69.80;;;;;;4975364;28;20037;-75
2022/03/12 10:19:31;;;;;;;13.63;8.15;;;11.80;69.10;;;;;;4995702;28;20060;-76
2022/03/12 10:21:57;;;;;;;12.60;8.30;;;11.80;70.90;;;;;;4995186;28;20532;-75
2022/03/12 10:24:24;;;;;;;10.73;7.18;;;11.90;71.00;;;;;;4994513;28;20033;-76
2022/03/12 10:26:50;;;;;;;11.52;7.80;;;12.00;70.50;;;;;;4991940;28;20053;-77
2022/03/12 10:29:16;;;;;;;13.52;7.43;;;12.10;72.10;;;;;;4991583;28;20038;-77
2022/03/12 10:31:42;;;;;;;12.02;7.47;;;12.10;74.80;;;;;;4991083;28;20050;-74
2022/03/12 10:34:18;;;;;;;14.38;7.90;;;12.10;73.70;;;;;;4991161;28;20777;-75
2022/03/12 10:36:46;;;;;;;13.48;7.25;;;12.10;75.00;;;;;;4990408;28;20041;-74
2022/03/12 10:39:12;;;;;;;12.10;8.18;;;12.30;77.60;;;;;;4991162;28;20072;-75
2022/03/12 10:41:38;;;;;;;10.93;6.80;;;12.30;78.40;;;;;;5027401;28;20041;-74
2022/03/12 10:44:04;;;;;;;12.75;7.13;;;12.30;80.20;;;;;;5009385;28;20076;-74
2022/03/12 10:46:32;;;;;;;13.27;8.13;;;12.40;78.00;;;;;;5011880;28;20041;-75
2022/03/12 10:48:59;;;;;;;12.80;7.90;;;12.40;78.10;;;;;;5014384;28;20038;-75
2022/03/12 10:51:29;;;;;;;12.02;7.70;;;12.50;80.30;;;;;;5012730;28;20549;-75
2022/03/12 10:54:08;;;;;;;13.82;7.75;;;12.50;81.30;;;;;;5012984;28;20521;-74
2022/03/12 10:57:03;;;;;;;11.70;7.78;;;12.70;80.50;;;;;;4994348;28;20042;-75
2022/03/12 10:59:29;;;;;;;13.00;7.65;;;12.60;79.40;;;;;;4967588;28;20065;-75
2022/03/12 11:02:01;;;;;;;12.65;8.32;;;12.60;80.80;;;;;;5014405;28;20045;-74
2022/03/12 11:04:31;;;;;;;13.05;8.15;;;12.70;81.30;;;;;;4996083;28;20038;-75
2022/03/12 11:06:58;;;;;;;13.98;8.82;;;12.70;79.60;;;;;;4997673;28;20073;-74
2022/03/12 11:09:42;;;;;;;13.80;8.77;;;12.70;79.60;;;;;;5026160;28;20042;-75
2022/03/12 11:12:31;;;;;;;14.57;8.45;;;12.80;80.30;;;;;;4998193;28;20104;-74
2022/03/12 11:15:10;;;;;;;12.93;8.10;;;12.80;82.50;;;;;;5030359;28;20050;-75
2022/03/12 11:17:50;;;;;;;13.40;8.27;;;12.80;81.50;;;;;;5014308;28;20409;-75
2022/03/12 11:20:25;;;;;;;14.63;9.20;;;12.80;81.40;;;;;;4987649;28;20042;-75
2022/03/12 11:23:07;;;;;;;12.68;8.23;;;12.80;83.50;;;;;;4997464;28;20038;-80
2022/03/12 11:25:36;;;;;;;13.77;8.13;;;13.10;81.10;;;;;;4991927;28;20478;-81
2022/03/12 11:28:18;;;;;;;13.40;7.63;;;13.00;83.50;;;;;;5009900;28;20049;-80
2022/03/12 11:30:43;;;;;;;15.82;8.23;;;13.00;84.70;;;;;;4995121;28;20081;-80
2022/03/12 11:33:09;;;;;;;14.02;8.07;;;13.10;82.60;;;;;;4994942;28;20073;-80
2022/03/12 11:35:43;;;;;;;13.35;8.15;;;13.10;84.50;;;;;;5000512;28;20041;-80
2022/03/12 11:38:20;;;;;;;11.68;8.00;;;13.20;84.00;;;;;;5018547;28;20121;-80
2022/03/12 11:40:49;;;;;;;13.90;7.72;;;13.20;86.60;;;;;;4994313;28;20050;-81
2022/03/12 11:43:38;;;;;;;15.98;8.77;;;13.20;85.00;;;;;;4996335;28;20050;-80
2022/03/12 11:46:06;;;;;;;11.38;6.57;;;13.30;85.50;;;;;;5011324;28;20038;-79
2022/03/12 11:48:32;;;;;;;14.07;6.93;;;13.40;83.70;;;;;;4993141;28;20048;-79
2022/03/12 11:51:01;;;;;;;12.07;7.60;;;13.40;86.20;;;;;;5001300;28;20034;-81
2022/03/12 11:53:31;;;;;;;12.60;7.22;;;13.30;85.60;;;;;;5013277;28;20052;-81
2022/03/12 11:55:58;;;;;;;11.55;6.95;;;13.30;88.10;;;;;;4993765;28;20071;-79
2022/03/12 11:58:23;;;;;;;12.13;6.53;;;13.30;90.70;;;;;;5026528;28;20046;-81
2022/03/12 12:00:49;;;;;;;11.88;6.28;;;13.40;90.50;;;;;;4992889;28;20046;-81
2022/03/12 12:03:16;;;;;;;12.38;7.15;;;13.50;88.80;;;;;;4994486;28;20050;-82
2022/03/12 12:05:46;;;;;;;10.18;6.65;;;13.40;90.80;;;;;;5008716;28;20120;-81
2022/03/12 12:08:13;;;;;;;11.43;6.55;;;13.50;91.00;;;;;;4996750;28;20077;-81
2022/03/12 12:10:41;;;;;;;12.60;6.75;;;13.60;88.60;;;;;;5011414;28;20034;-81
2022/03/12 12:13:06;;;;;;;9.90;5.68;;;13.70;86.70;;;;;;4996480;28;20096;-79
2022/03/12 12:15:36;;;;;;;12.07;6.60;;;13.70;87.80;;;;;;4998322;28;20038;-80
2022/03/12 12:18:07;;;;;;;10.57;6.53;;;13.60;88.40;;;;;;4992804;28;20045;-81
2022/03/12 12:20:34;;;;;;;9.88;6.05;;;13.60;90.60;;;;;;5006752;28;20049;-81
2022/03/12 12:23:01;;;;;;;12.77;7.10;;;13.60;91.30;;;;;;5010054;28;20513;-80
2022/03/12 12:25:35;;;;;;;10.57;5.63;;;13.70;92.20;;;;;;4993597;28;20037;-81
2022/03/12 12:28:22;;;;;;;11.63;6.32;;;13.80;89.40;;;;;;5011275;28;20034;-81
2022/03/12 12:30:50;;;;;;;10.68;6.72;;;13.80;89.80;;;;;;5029204;28;20125;-80
2022/03/12 12:33:27;;;;;;;13.10;7.30;;;13.70;90.40;;;;;;5027512;28;20045;-81
2022/03/12 12:36:13;;;;;;;13.73;6.95;;;13.80;90.80;;;;;;5028678;28;20425;-81
2022/03/12 12:38:43;;;;;;;11.88;7.07;;;13.70;90.90;;;;;;5008125;28;20129;-81
2022/03/12 12:41:10;;;;;;;9.95;5.93;;;13.80;91.90;;;;;;5015559;28;20124;-81
2022/03/12 12:43:45;;;;;;;10.02;5.63;;;13.90;90.00;;;;;;5006055;28;20043;-81
2022/03/12 12:46:17;;;;;;;12.73;6.13;;;13.90;87.50;;;;;;4991933;28;20499;-80
2022/03/12 12:48:48;;;;;;;10.85;6.00;;;14.00;86.60;;;;;;5003355;28;20038;-81